sensor_id;sensor_type;location;lat;lon;timestamp;P1;durP1;ratioP1;P2;durP2;ratioP2
20241;SDS011;10279;46.388;8.116;2022-12-18T00:02:23;2.03;;;1.20;;
20241;SDS011;10279;46.388;8.116;2022-12-18T00:04:51;1.43;;;0.90;;
20241;SDS011;10279;46.388;8.116;2022-12-18T00:07:18;1.70;;;1.17;;
20241;SDS011;10279;46.388;8.116;2022-12-18T00:09:46;1.20;;;1.10;;
20241;SDS011;10279;46.388;8.116;2022-12-18T00:12:13;1.50;;;0.97;;
20241;SDS011;10279;46.388;8.116;2022-12-18T00:14:45;1.17;;;0.90;;
20241;SDS011;10279;46.388;8.116;2022-12-18T00:17:16;3.23;;;1.20;;
20241;SDS011;10279;46.388;8.116;2022-12-18T00:19:43;1.87;;;1.07;;
20241;SDS011;10279;46.388;8.116;2022-12-18T00:22:11;1.10;;;0.77;;
20241;SDS011;10279;46.388;8.116;2022-12-18T00:24:38;3.07;;;1.27;;
20241;SDS011;10279;46.388;8.116;2022-12-18T00:27:05;1.97;;;1.10;;
20241;SDS011;10279;46.388;8.116;2022-12-18T00:29:33;1.47;;;1.20;;
20241;SDS011;10279;46.388;8.116;2022-12-18T00:32:00;1.50;;;1.20;;
20241;SDS011;10279;46.388;8.116;2022-12-18T00:34:28;1.63;;;0.90;;
20241;SDS011;10279;46.388;8.116;2022-12-18T00:36:55;1.60;;;1.20;;
20241;SDS011;10279;46.388;8.116;2022-12-18T00:39:23;1.27;;;1.10;;
20241;SDS011;10279;46.388;8.116;2022-12-18T00:41:50;3.03;;;1.03;;
20241;SDS011;10279;46.388;8.116;2022-12-18T00:44:36;1.83;;;1.00;;
20241;SDS011;10279;46.388;8.116;2022-12-18T00:47:03;2.10;;;1.20;;
20241;SDS011;10279;46.388;8.116;2022-12-18T00:49:31;2.20;;;1.03;;
20241;SDS011;10279;46.388;8.116;2022-12-18T00:51:58;0.97;;;0.80;;
20241;SDS011;10279;46.388;8.116;2022-12-18T00:54:25;0.80;;;0.80;;
20241;SDS011;10279;46.388;8.116;2022-12-18T00:56:53;1.37;;;1.03;;
20241;SDS011;10279;46.388;8.116;2022-12-18T00:59:21;1.53;;;0.93;;
20241;SDS011;10279;46.388;8.116;2022-12-18T01:01:49;2.37;;;1.20;;
20241;SDS011;10279;46.388;8.116;2022-12-18T01:04:16;3.53;;;0.90;;
20241;SDS011;10279;46.388;8.116;2022-12-18T01:06:43;1.53;;;0.90;;
20241;SDS011;10279;46.388;8.116;2022-12-18T01:09:12;2.30;;;1.13;;
20241;SDS011;10279;46.388;8.116;2022-12-18T01:11:39;1.67;;;1.13;;
20241;SDS011;10279;46.388;8.116;2022-12-18T01:14:07;1.70;;;1.10;;
20241;SDS011;10279;46.388;8.116;2022-12-18T01:16:34;1.37;;;1.00;;
20241;SDS011;10279;46.388;8.116;2022-12-18T01:19:02;1.07;;;0.77;;
20241;SDS011;10279;46.388;8.116;2022-12-18T01:21:29;1.37;;;1.00;;
20241;SDS011;10279;46.388;8.116;2022-12-18T01:23:57;2.63;;;1.10;;
20241;SDS011;10279;46.388;8.116;2022-12-18T01:26:25;1.00;;;0.90;;
20241;SDS011;10279;46.388;8.116;2022-12-18T01:28:54;2.30;;;1.10;;
20241;SDS011;10279;46.388;8.116;2022-12-18T01:31:25;1.23;;;0.63;;
20241;SDS011;10279;46.388;8.116;2022-12-18T01:33:53;1.20;;;0.77;;
20241;SDS011;10279;46.388;8.116;2022-12-18T01:36:25;1.33;;;0.70;;
20241;SDS011;10279;46.388;8.116;2022-12-18T01:38:52;1.00;;;0.90;;
20241;SDS011;10279;46.388;8.116;2022-12-18T01:41:21;0.90;;;0.70;;
20241;SDS011;10279;46.388;8.116;2022-12-18T01:43:51;0.87;;;0.60;;
20241;SDS011;10279;46.388;8.116;2022-12-18T01:46:19;0.97;;;0.87;;
20241;SDS011;10279;46.388;8.116;2022-12-18T01:48:47;1.37;;;1.17;;
20241;SDS011;10279;46.388;8.116;2022-12-18T01:51:15;1.27;;;0.83;;
20241;SDS011;10279;46.388;8.116;2022-12-18T01:53:43;2.17;;;1.17;;
20241;SDS011;10279;46.388;8.116;2022-12-18T01:56:12;2.30;;;1.43;;
20241;SDS011;10279;46.388;8.116;2022-12-18T02:01:08;2.23;;;1.00;;
20241;SDS011;10279;46.388;8.116;2022-12-18T02:03:35;1.13;;;0.73;;
20241;SDS011;10279;46.388;8.116;2022-12-18T02:06:11;1.10;;;0.80;;
20241;SDS011;10279;46.388;8.116;2022-12-18T02:11:25;1.93;;;0.80;;
20241;SDS011;10279;46.388;8.116;2022-12-18T02:14:01;0.80;;;0.80;;
20241;SDS011;10279;46.388;8.116;2022-12-18T02:27:11;2.57;;;0.70;;
20241;SDS011;10279;46.388;8.116;2022-12-18T02:29:51;1.43;;;0.63;;
20241;SDS011;10279;46.388;8.116;2022-12-18T02:32:25;0.60;;;0.60;;
20241;SDS011;10279;46.388;8.116;2022-12-18T02:34:54;1.43;;;0.80;;
20241;SDS011;10279;46.388;8.116;2022-12-18T02:37:23;1.17;;;0.70;;
20241;SDS011;10279;46.388;8.116;2022-12-18T02:39:51;1.10;;;0.80;;
20241;SDS011;10279;46.388;8.116;2022-12-18T02:42:20;1.00;;;0.70;;
20241;SDS011;10279;46.388;8.116;2022-12-18T02:44:48;0.50;;;0.50;;
20241;SDS011;10279;46.388;8.116;2022-12-18T02:47:18;1.20;;;0.70;;
20241;SDS011;10279;46.388;8.116;2022-12-18T02:49:49;0.70;;;0.70;;
20241;SDS011;10279;46.388;8.116;2022-12-18T02:52:33;1.00;;;0.80;;
20241;SDS011;10279;46.388;8.116;2022-12-18T03:00:22;1.13;;;0.90;;
20241;SDS011;10279;46.388;8.116;2022-12-18T03:07:57;1.50;;;0.70;;
20241;SDS011;10279;46.388;8.116;2022-12-18T03:10:26;0.80;;;0.60;;
20241;SDS011;10279;46.388;8.116;2022-12-18T03:13:00;0.77;;;0.60;;
20241;SDS011;10279;46.388;8.116;2022-12-18T03:15:34;1.03;;;0.60;;
20241;SDS011;10279;46.388;8.116;2022-12-18T03:18:03;1.50;;;1.10;;
20241;SDS011;10279;46.388;8.116;2022-12-18T03:20:32;2.67;;;1.37;;
20241;SDS011;10279;46.388;8.116;2022-12-18T03:23:12;1.30;;;1.00;;
20241;SDS011;10279;46.388;8.116;2022-12-18T03:25:41;0.93;;;0.70;;
20241;SDS011;10279;46.388;8.116;2022-12-18T03:28:15;1.00;;;0.90;;
20241;SDS011;10279;46.388;8.116;2022-12-18T03:30:47;1.37;;;1.00;;
20241;SDS011;10279;46.388;8.116;2022-12-18T03:33:16;1.63;;;0.97;;
20241;SDS011;10279;46.388;8.116;2022-12-18T03:35:45;1.00;;;0.60;;
20241;SDS011;10279;46.388;8.116;2022-12-18T03:38:13;0.73;;;0.60;;
20241;SDS011;10279;46.388;8.116;2022-12-18T03:45:58;0.67;;;0.60;;
20241;SDS011;10279;46.388;8.116;2022-12-18T03:48:29;0.77;;;0.70;;
20241;SDS011;10279;46.388;8.116;2022-12-18T03:50:59;1.20;;;0.33;;
20241;SDS011;10279;46.388;8.116;2022-12-18T03:56:17;0.90;;;0.70;;
20241;SDS011;10279;46.388;8.116;2022-12-18T03:58:45;0.83;;;0.40;;
20241;SDS011;10279;46.388;8.116;2022-12-18T04:01:14;0.90;;;0.70;;
20241;SDS011;10279;46.388;8.116;2022-12-18T04:03:43;0.70;;;0.70;;
20241;SDS011;10279;46.388;8.116;2022-12-18T04:06:11;0.60;;;0.60;;
20241;SDS011;10279;46.388;8.116;2022-12-18T04:08:39;0.53;;;0.53;;
20241;SDS011;10279;46.388;8.116;2022-12-18T04:11:07;0.50;;;0.50;;
20241;SDS011;10279;46.388;8.116;2022-12-18T04:13:35;1.13;;;0.60;;
20241;SDS011;10279;46.388;8.116;2022-12-18T04:16:04;0.70;;;0.53;;
20241;SDS011;10279;46.388;8.116;2022-12-18T04:18:31;0.63;;;0.57;;
20241;SDS011;10279;46.388;8.116;2022-12-18T04:20:59;0.70;;;0.70;;
20241;SDS011;10279;46.388;8.116;2022-12-18T04:23:26;0.70;;;0.50;;
20241;SDS011;10279;46.388;8.116;2022-12-18T04:25:54;0.60;;;0.50;;
20241;SDS011;10279;46.388;8.116;2022-12-18T04:28:22;0.77;;;0.70;;
20241;SDS011;10279;46.388;8.116;2022-12-18T04:30:49;0.80;;;0.57;;
20241;SDS011;10279;46.388;8.116;2022-12-18T04:33:17;1.00;;;0.60;;
20241;SDS011;10279;46.388;8.116;2022-12-18T04:35:44;0.60;;;0.40;;
20241;SDS011;10279;46.388;8.116;2022-12-18T04:38:12;0.80;;;0.60;;
20241;SDS011;10279;46.388;8.116;2022-12-18T04:40:39;2.53;;;0.70;;
20241;SDS011;10279;46.388;8.116;2022-12-18T04:43:08;0.60;;;0.60;;
20241;SDS011;10279;46.388;8.116;2022-12-18T04:45:35;0.83;;;0.57;;
20241;SDS011;10279;46.388;8.116;2022-12-18T04:48:03;1.53;;;0.83;;
20241;SDS011;10279;46.388;8.116;2022-12-18T04:50:31;1.37;;;0.80;;
20241;SDS011;10279;46.388;8.116;2022-12-18T04:52:58;0.90;;;0.67;;
20241;SDS011;10279;46.388;8.116;2022-12-18T04:55:26;0.93;;;0.60;;
20241;SDS011;10279;46.388;8.116;2022-12-18T04:57:53;1.70;;;0.70;;
20241;SDS011;10279;46.388;8.116;2022-12-18T05:00:21;0.60;;;0.40;;
20241;SDS011;10279;46.388;8.116;2022-12-18T05:02:48;1.47;;;0.50;;
20241;SDS011;10279;46.388;8.116;2022-12-18T05:05:16;1.23;;;0.77;;
20241;SDS011;10279;46.388;8.116;2022-12-18T05:07:43;1.50;;;0.60;;
20241;SDS011;10279;46.388;8.116;2022-12-18T05:10:11;0.87;;;0.70;;
20241;SDS011;10279;46.388;8.116;2022-12-18T05:12:38;0.90;;;0.67;;
20241;SDS011;10279;46.388;8.116;2022-12-18T05:15:30;0.80;;;0.80;;
20241;SDS011;10279;46.388;8.116;2022-12-18T05:17:58;0.50;;;0.50;;
20241;SDS011;10279;46.388;8.116;2022-12-18T05:20:26;1.73;;;0.77;;
20241;SDS011;10279;46.388;8.116;2022-12-18T05:22:54;1.60;;;0.53;;
20241;SDS011;10279;46.388;8.116;2022-12-18T05:25:22;0.93;;;0.73;;
20241;SDS011;10279;46.388;8.116;2022-12-18T05:27:49;1.53;;;0.77;;
20241;SDS011;10279;46.388;8.116;2022-12-18T05:30:17;0.70;;;0.70;;
20241;SDS011;10279;46.388;8.116;2022-12-18T05:32:44;1.23;;;0.80;;
20241;SDS011;10279;46.388;8.116;2022-12-18T05:35:11;1.30;;;0.67;;
20241;SDS011;10279;46.388;8.116;2022-12-18T05:37:39;0.83;;;0.60;;
20241;SDS011;10279;46.388;8.116;2022-12-18T05:40:09;0.63;;;0.60;;
20241;SDS011;10279;46.388;8.116;2022-12-18T05:42:36;0.80;;;0.70;;
20241;SDS011;10279;46.388;8.116;2022-12-18T05:45:04;0.70;;;0.70;;
20241;SDS011;10279;46.388;8.116;2022-12-18T05:47:32;0.80;;;0.77;;
20241;SDS011;10279;46.388;8.116;2022-12-18T05:49:59;0.83;;;0.60;;
20241;SDS011;10279;46.388;8.116;2022-12-18T05:52:26;2.20;;;0.60;;
20241;SDS011;10279;46.388;8.116;2022-12-18T05:54:54;1.47;;;0.80;;
20241;SDS011;10279;46.388;8.116;2022-12-18T05:57:21;1.00;;;0.70;;
20241;SDS011;10279;46.388;8.116;2022-12-18T05:59:48;1.57;;;0.80;;
20241;SDS011;10279;46.388;8.116;2022-12-18T06:02:16;1.60;;;0.73;;
20241;SDS011;10279;46.388;8.116;2022-12-18T06:04:44;0.50;;;0.50;;
20241;SDS011;10279;46.388;8.116;2022-12-18T06:07:11;1.60;;;0.83;;
20241;SDS011;10279;46.388;8.116;2022-12-18T06:09:39;1.17;;;0.70;;
20241;SDS011;10279;46.388;8.116;2022-12-18T06:12:06;0.73;;;0.67;;
20241;SDS011;10279;46.388;8.116;2022-12-18T06:14:33;1.83;;;0.97;;
20241;SDS011;10279;46.388;8.116;2022-12-18T06:17:01;3.80;;;0.73;;
20241;SDS011;10279;46.388;8.116;2022-12-18T06:19:28;2.20;;;1.30;;
20241;SDS011;10279;46.388;8.116;2022-12-18T06:21:55;0.70;;;0.70;;
20241;SDS011;10279;46.388;8.116;2022-12-18T06:24:25;0.80;;;0.70;;
20241;SDS011;10279;46.388;8.116;2022-12-18T06:26:52;2.37;;;1.20;;
20241;SDS011;10279;46.388;8.116;2022-12-18T06:29:20;2.50;;;1.23;;
20241;SDS011;10279;46.388;8.116;2022-12-18T06:31:47;1.80;;;0.83;;
20241;SDS011;10279;46.388;8.116;2022-12-18T06:34:14;2.23;;;1.27;;
20241;SDS011;10279;46.388;8.116;2022-12-18T06:36:42;3.70;;;1.90;;
20241;SDS011;10279;46.388;8.116;2022-12-18T06:39:09;1.93;;;1.00;;
20241;SDS011;10279;46.388;8.116;2022-12-18T06:41:37;1.70;;;1.20;;
20241;SDS011;10279;46.388;8.116;2022-12-18T06:44:05;2.33;;;1.30;;
20241;SDS011;10279;46.388;8.116;2022-12-18T06:46:33;1.23;;;1.10;;
20241;SDS011;10279;46.388;8.116;2022-12-18T06:49:00;2.33;;;1.30;;
20241;SDS011;10279;46.388;8.116;2022-12-18T06:51:28;2.63;;;1.40;;
20241;SDS011;10279;46.388;8.116;2022-12-18T06:53:56;3.13;;;1.00;;
20241;SDS011;10279;46.388;8.116;2022-12-18T06:56:23;1.13;;;1.00;;
20241;SDS011;10279;46.388;8.116;2022-12-18T06:58:51;3.43;;;1.10;;
20241;SDS011;10279;46.388;8.116;2022-12-18T07:01:18;2.90;;;1.20;;
20241;SDS011;10279;46.388;8.116;2022-12-18T07:03:46;2.43;;;1.17;;
20241;SDS011;10279;46.388;8.116;2022-12-18T07:06:14;2.70;;;1.00;;
20241;SDS011;10279;46.388;8.116;2022-12-18T07:08:42;3.93;;;1.17;;
20241;SDS011;10279;46.388;8.116;2022-12-18T07:11:09;1.23;;;1.10;;
20241;SDS011;10279;46.388;8.116;2022-12-18T07:13:37;1.87;;;1.03;;
20241;SDS011;10279;46.388;8.116;2022-12-18T07:16:05;2.20;;;1.20;;
20241;SDS011;10279;46.388;8.116;2022-12-18T07:18:42;5.47;;;2.03;;
20241;SDS011;10279;46.388;8.116;2022-12-18T07:21:11;3.37;;;1.37;;
20241;SDS011;10279;46.388;8.116;2022-12-18T07:23:39;1.23;;;1.10;;
20241;SDS011;10279;46.388;8.116;2022-12-18T07:26:07;2.90;;;1.30;;
20241;SDS011;10279;46.388;8.116;2022-12-18T07:28:39;2.37;;;1.40;;
20241;SDS011;10279;46.388;8.116;2022-12-18T07:31:08;2.60;;;1.13;;
20241;SDS011;10279;46.388;8.116;2022-12-18T07:33:37;2.43;;;1.70;;
20241;SDS011;10279;46.388;8.116;2022-12-18T07:36:06;1.93;;;1.30;;
20241;SDS011;10279;46.388;8.116;2022-12-18T07:38:34;1.93;;;1.20;;
20241;SDS011;10279;46.388;8.116;2022-12-18T07:41:02;1.47;;;1.20;;
20241;SDS011;10279;46.388;8.116;2022-12-18T07:43:32;2.27;;;1.70;;
20241;SDS011;10279;46.388;8.116;2022-12-18T07:46:00;1.40;;;1.30;;
20241;SDS011;10279;46.388;8.116;2022-12-18T07:48:28;2.20;;;1.30;;
20241;SDS011;10279;46.388;8.116;2022-12-18T07:51:02;4.47;;;1.40;;
20241;SDS011;10279;46.388;8.116;2022-12-18T07:53:30;4.10;;;1.70;;
20241;SDS011;10279;46.388;8.116;2022-12-18T07:56:02;3.20;;;1.97;;
20241;SDS011;10279;46.388;8.116;2022-12-18T07:58:50;3.67;;;1.67;;
20241;SDS011;10279;46.388;8.116;2022-12-18T08:01:17;1.97;;;1.23;;
20241;SDS011;10279;46.388;8.116;2022-12-18T08:03:46;1.17;;;1.07;;
20241;SDS011;10279;46.388;8.116;2022-12-18T08:06:17;1.53;;;1.17;;
20241;SDS011;10279;46.388;8.116;2022-12-18T08:08:47;2.43;;;1.63;;
20241;SDS011;10279;46.388;8.116;2022-12-18T08:11:15;5.03;;;2.57;;
20241;SDS011;10279;46.388;8.116;2022-12-18T08:13:43;2.93;;;1.87;;
20241;SDS011;10279;46.388;8.116;2022-12-18T08:16:10;2.47;;;1.70;;
20241;SDS011;10279;46.388;8.116;2022-12-18T08:18:38;2.60;;;1.60;;
20241;SDS011;10279;46.388;8.116;2022-12-18T08:23:36;4.03;;;2.37;;
20241;SDS011;10279;46.388;8.116;2022-12-18T08:26:08;2.20;;;1.63;;
20241;SDS011;10279;46.388;8.116;2022-12-18T08:28:35;3.57;;;1.83;;
20241;SDS011;10279;46.388;8.116;2022-12-18T08:31:03;4.67;;;1.63;;
20241;SDS011;10279;46.388;8.116;2022-12-18T08:33:30;1.57;;;1.30;;
20241;SDS011;10279;46.388;8.116;2022-12-18T08:35:58;2.13;;;1.40;;
20241;SDS011;10279;46.388;8.116;2022-12-18T08:38:26;3.57;;;1.33;;
20241;SDS011;10279;46.388;8.116;2022-12-18T08:41:00;2.67;;;1.73;;
20241;SDS011;10279;46.388;8.116;2022-12-18T08:43:27;5.27;;;2.07;;
20241;SDS011;10279;46.388;8.116;2022-12-18T08:46:14;2.63;;;1.50;;
20241;SDS011;10279;46.388;8.116;2022-12-18T08:48:41;2.17;;;1.53;;
20241;SDS011;10279;46.388;8.116;2022-12-18T08:51:09;4.03;;;1.80;;
20241;SDS011;10279;46.388;8.116;2022-12-18T08:53:37;2.33;;;1.50;;
20241;SDS011;10279;46.388;8.116;2022-12-18T08:56:05;3.57;;;1.90;;
20241;SDS011;10279;46.388;8.116;2022-12-18T08:58:33;4.03;;;1.90;;
20241;SDS011;10279;46.388;8.116;2022-12-18T09:01:01;1.83;;;1.50;;
20241;SDS011;10279;46.388;8.116;2022-12-18T09:03:29;2.90;;;1.47;;
20241;SDS011;10279;46.388;8.116;2022-12-18T09:05:56;1.63;;;1.00;;
20241;SDS011;10279;46.388;8.116;2022-12-18T09:08:27;2.63;;;1.57;;
20241;SDS011;10279;46.388;8.116;2022-12-18T09:10:55;3.63;;;1.43;;
20241;SDS011;10279;46.388;8.116;2022-12-18T09:13:22;2.53;;;1.30;;
20241;SDS011;10279;46.388;8.116;2022-12-18T09:15:51;3.17;;;1.67;;
20241;SDS011;10279;46.388;8.116;2022-12-18T09:18:20;5.87;;;1.87;;
20241;SDS011;10279;46.388;8.116;2022-12-18T09:20:47;3.00;;;1.70;;
20241;SDS011;10279;46.388;8.116;2022-12-18T09:23:16;5.23;;;1.83;;
20241;SDS011;10279;46.388;8.116;2022-12-18T09:25:43;1.93;;;1.13;;
20241;SDS011;10279;46.388;8.116;2022-12-18T09:28:12;3.50;;;2.07;;
20241;SDS011;10279;46.388;8.116;2022-12-18T09:30:42;4.10;;;1.70;;
20241;SDS011;10279;46.388;8.116;2022-12-18T09:33:09;5.80;;;3.10;;
20241;SDS011;10279;46.388;8.116;2022-12-18T09:35:37;4.73;;;2.23;;
20241;SDS011;10279;46.388;8.116;2022-12-18T09:38:06;4.87;;;2.90;;
20241;SDS011;10279;46.388;8.116;2022-12-18T09:40:35;8.20;;;2.50;;
20241;SDS011;10279;46.388;8.116;2022-12-18T09:43:04;3.23;;;1.80;;
20241;SDS011;10279;46.388;8.116;2022-12-18T09:45:40;5.77;;;2.10;;
20241;SDS011;10279;46.388;8.116;2022-12-18T09:48:18;3.30;;;2.00;;
20241;SDS011;10279;46.388;8.116;2022-12-18T09:50:47;3.77;;;1.50;;
20241;SDS011;10279;46.388;8.116;2022-12-18T09:53:20;3.87;;;1.90;;
20241;SDS011;10279;46.388;8.116;2022-12-18T09:55:48;3.07;;;1.73;;
20241;SDS011;10279;46.388;8.116;2022-12-18T09:58:20;2.83;;;1.50;;
20241;SDS011;10279;46.388;8.116;2022-12-18T10:00:53;3.93;;;1.43;;
20241;SDS011;10279;46.388;8.116;2022-12-18T10:03:21;5.63;;;1.80;;
20241;SDS011;10279;46.388;8.116;2022-12-18T10:08:25;4.50;;;1.70;;
20241;SDS011;10279;46.388;8.116;2022-12-18T10:10:57;3.13;;;1.70;;
20241;SDS011;10279;46.388;8.116;2022-12-18T10:13:33;2.97;;;1.50;;
20241;SDS011;10279;46.388;8.116;2022-12-18T10:21:18;5.30;;;1.87;;
20241;SDS011;10279;46.388;8.116;2022-12-18T10:23:49;6.13;;;2.03;;
20241;SDS011;10279;46.388;8.116;2022-12-18T10:26:21;2.17;;;1.43;;
20241;SDS011;10279;46.388;8.116;2022-12-18T10:28:48;4.97;;;3.27;;
20241;SDS011;10279;46.388;8.116;2022-12-18T10:31:19;4.83;;;3.40;;
20241;SDS011;10279;46.388;8.116;2022-12-18T10:33:49;6.37;;;4.33;;
20241;SDS011;10279;46.388;8.116;2022-12-18T10:36:17;11.23;;;4.80;;
20241;SDS011;10279;46.388;8.116;2022-12-18T10:38:44;11.97;;;5.90;;
20241;SDS011;10279;46.388;8.116;2022-12-18T10:43:47;10.90;;;4.17;;
20241;SDS011;10279;46.388;8.116;2022-12-18T10:46:19;5.47;;;2.73;;
20241;SDS011;10279;46.388;8.116;2022-12-18T10:51:32;2.47;;;1.40;;
20241;SDS011;10279;46.388;8.116;2022-12-18T10:54:21;2.17;;;1.30;;
20241;SDS011;10279;46.388;8.116;2022-12-18T10:56:48;10.97;;;1.87;;
20241;SDS011;10279;46.388;8.116;2022-12-18T10:59:16;4.17;;;1.93;;
20241;SDS011;10279;46.388;8.116;2022-12-18T11:04:32;4.43;;;1.93;;
20241;SDS011;10279;46.388;8.116;2022-12-18T11:07:05;7.60;;;1.70;;
20241;SDS011;10279;46.388;8.116;2022-12-18T11:09:33;2.53;;;1.97;;
20241;SDS011;10279;46.388;8.116;2022-12-18T11:12:02;3.53;;;1.83;;
20241;SDS011;10279;46.388;8.116;2022-12-18T11:14:35;6.63;;;1.93;;
20241;SDS011;10279;46.388;8.116;2022-12-18T11:19:52;5.70;;;2.37;;
20241;SDS011;10279;46.388;8.116;2022-12-18T11:22:24;5.87;;;2.00;;
20241;SDS011;10279;46.388;8.116;2022-12-18T11:28:00;4.13;;;1.93;;
20241;SDS011;10279;46.388;8.116;2022-12-18T11:30:29;2.60;;;1.97;;
20241;SDS011;10279;46.388;8.116;2022-12-18T11:38:00;3.93;;;1.53;;
20241;SDS011;10279;46.388;8.116;2022-12-18T11:40:36;3.40;;;1.60;;
20241;SDS011;10279;46.388;8.116;2022-12-18T11:43:09;6.03;;;1.70;;
20241;SDS011;10279;46.388;8.116;2022-12-18T11:45:41;3.37;;;1.30;;
20241;SDS011;10279;46.388;8.116;2022-12-18T11:48:23;2.00;;;1.50;;
20241;SDS011;10279;46.388;8.116;2022-12-18T11:50:53;3.20;;;1.50;;
20241;SDS011;10279;46.388;8.116;2022-12-18T11:53:22;3.07;;;1.30;;
20241;SDS011;10279;46.388;8.116;2022-12-18T12:01:18;2.40;;;1.07;;
20241;SDS011;10279;46.388;8.116;2022-12-18T12:06:20;3.57;;;1.13;;
20241;SDS011;10279;46.388;8.116;2022-12-18T12:11:39;2.73;;;1.40;;
20241;SDS011;10279;46.388;8.116;2022-12-18T12:19:24;1.80;;;1.40;;
20241;SDS011;10279;46.388;8.116;2022-12-18T12:37:20;1.77;;;1.50;;
20241;SDS011;10279;46.388;8.116;2022-12-18T12:39:52;3.80;;;1.50;;
20241;SDS011;10279;46.388;8.116;2022-12-18T12:42:29;9.33;;;1.77;;
20241;SDS011;10279;46.388;8.116;2022-12-18T12:45:18;2.37;;;1.30;;
20241;SDS011;10279;46.388;8.116;2022-12-18T12:47:48;6.57;;;1.30;;
20241;SDS011;10279;46.388;8.116;2022-12-18T12:50:17;1.40;;;1.17;;
20241;SDS011;10279;46.388;8.116;2022-12-18T12:52:46;6.67;;;1.43;;
20241;SDS011;10279;46.388;8.116;2022-12-18T12:55:21;1.83;;;1.10;;
20241;SDS011;10279;46.388;8.116;2022-12-18T13:00:21;6.30;;;3.13;;
20241;SDS011;10279;46.388;8.116;2022-12-18T13:02:59;5.93;;;2.90;;
20241;SDS011;10279;46.388;8.116;2022-12-18T13:05:30;4.17;;;1.67;;
20241;SDS011;10279;46.388;8.116;2022-12-18T13:10:36;1.53;;;1.27;;
20241;SDS011;10279;46.388;8.116;2022-12-18T13:13:06;5.20;;;1.40;;
20241;SDS011;10279;46.388;8.116;2022-12-18T13:25:47;2.13;;;1.50;;
20241;SDS011;10279;46.388;8.116;2022-12-18T13:28:15;2.37;;;1.53;;
20241;SDS011;10279;46.388;8.116;2022-12-18T13:31:04;4.77;;;1.80;;
20241;SDS011;10279;46.388;8.116;2022-12-18T13:36:09;4.80;;;1.50;;
20241;SDS011;10279;46.388;8.116;2022-12-18T13:38:38;5.63;;;3.87;;
20241;SDS011;10279;46.388;8.116;2022-12-18T13:43:47;3.33;;;1.67;;
20241;SDS011;10279;46.388;8.116;2022-12-18T13:48:57;3.93;;;2.73;;
20241;SDS011;10279;46.388;8.116;2022-12-18T13:51:28;6.00;;;2.27;;
20241;SDS011;10279;46.388;8.116;2022-12-18T13:53:58;4.67;;;2.07;;
20241;SDS011;10279;46.388;8.116;2022-12-18T13:56:31;4.73;;;1.87;;
20241;SDS011;10279;46.388;8.116;2022-12-18T13:59:05;3.63;;;1.80;;
20241;SDS011;10279;46.388;8.116;2022-12-18T14:01:34;3.03;;;1.43;;
20241;SDS011;10279;46.388;8.116;2022-12-18T14:04:08;3.53;;;1.17;;
20241;SDS011;10279;46.388;8.116;2022-12-18T14:06:36;3.20;;;1.37;;
20241;SDS011;10279;46.388;8.116;2022-12-18T14:09:04;4.57;;;1.40;;
20241;SDS011;10279;46.388;8.116;2022-12-18T14:11:34;2.57;;;1.47;;
20241;SDS011;10279;46.388;8.116;2022-12-18T14:14:03;3.40;;;1.60;;
20241;SDS011;10279;46.388;8.116;2022-12-18T14:16:33;7.93;;;2.53;;
20241;SDS011;10279;46.388;8.116;2022-12-18T14:19:02;17.50;;;2.80;;
20241;SDS011;10279;46.388;8.116;2022-12-18T14:21:44;4.90;;;1.80;;
20241;SDS011;10279;46.388;8.116;2022-12-18T14:24:19;2.67;;;1.30;;
20241;SDS011;10279;46.388;8.116;2022-12-18T14:26:48;2.30;;;1.40;;
20241;SDS011;10279;46.388;8.116;2022-12-18T14:29:29;4.97;;;2.20;;
20241;SDS011;10279;46.388;8.116;2022-12-18T14:32:11;4.53;;;1.23;;
20241;SDS011;10279;46.388;8.116;2022-12-18T14:34:47;5.87;;;1.67;;
20241;SDS011;10279;46.388;8.116;2022-12-18T14:37:16;4.93;;;1.50;;
20241;SDS011;10279;46.388;8.116;2022-12-18T14:39:54;9.60;;;4.40;;
20241;SDS011;10279;46.388;8.116;2022-12-18T14:42:23;11.27;;;4.00;;
20241;SDS011;10279;46.388;8.116;2022-12-18T14:47:43;7.33;;;1.67;;
20241;SDS011;10279;46.388;8.116;2022-12-18T14:50:12;5.23;;;1.60;;
20241;SDS011;10279;46.388;8.116;2022-12-18T14:52:40;2.40;;;1.43;;
20241;SDS011;10279;46.388;8.116;2022-12-18T14:55:17;5.40;;;2.40;;
20241;SDS011;10279;46.388;8.116;2022-12-18T14:57:45;7.43;;;3.00;;
20241;SDS011;10279;46.388;8.116;2022-12-18T15:00:18;6.40;;;2.53;;
20241;SDS011;10279;46.388;8.116;2022-12-18T15:02:50;4.17;;;2.03;;
20241;SDS011;10279;46.388;8.116;2022-12-18T15:05:20;3.80;;;1.30;;
20241;SDS011;10279;46.388;8.116;2022-12-18T15:07:49;4.30;;;1.80;;
20241;SDS011;10279;46.388;8.116;2022-12-18T15:10:19;3.87;;;2.00;;
20241;SDS011;10279;46.388;8.116;2022-12-18T15:18:00;1.47;;;1.33;;
20241;SDS011;10279;46.388;8.116;2022-12-18T15:20:30;9.33;;;2.10;;
20241;SDS011;10279;46.388;8.116;2022-12-18T15:22:58;3.20;;;2.10;;
20241;SDS011;10279;46.388;8.116;2022-12-18T15:27:53;3.77;;;2.10;;
20241;SDS011;10279;46.388;8.116;2022-12-18T15:30:22;2.13;;;1.67;;
20241;SDS011;10279;46.388;8.116;2022-12-18T15:32:50;3.30;;;1.50;;
20241;SDS011;10279;46.388;8.116;2022-12-18T15:35:21;4.90;;;1.53;;
20241;SDS011;10279;46.388;8.116;2022-12-18T15:37:50;6.57;;;1.50;;
20241;SDS011;10279;46.388;8.116;2022-12-18T15:40:19;2.93;;;1.50;;
20241;SDS011;10279;46.388;8.116;2022-12-18T15:42:47;2.57;;;2.00;;
20241;SDS011;10279;46.388;8.116;2022-12-18T15:45:33;2.23;;;1.40;;
20241;SDS011;10279;46.388;8.116;2022-12-18T15:48:43;4.23;;;1.57;;
20241;SDS011;10279;46.388;8.116;2022-12-18T15:50:51;1.67;;;1.50;;
20241;SDS011;10279;46.388;8.116;2022-12-18T15:53:20;4.83;;;2.07;;
20241;SDS011;10279;46.388;8.116;2022-12-18T15:55:47;2.37;;;1.97;;
20241;SDS011;10279;46.388;8.116;2022-12-18T15:58:33;3.00;;;1.60;;
20241;SDS011;10279;46.388;8.116;2022-12-18T16:01:01;5.13;;;2.10;;
20241;SDS011;10279;46.388;8.116;2022-12-18T16:03:29;8.00;;;2.10;;
20241;SDS011;10279;46.388;8.116;2022-12-18T16:05:56;2.40;;;1.67;;
20241;SDS011;10279;46.388;8.116;2022-12-18T16:08:28;3.97;;;2.00;;
20241;SDS011;10279;46.388;8.116;2022-12-18T16:10:56;2.20;;;1.50;;
20241;SDS011;10279;46.388;8.116;2022-12-18T16:13:24;3.73;;;1.83;;
20241;SDS011;10279;46.388;8.116;2022-12-18T16:15:51;2.80;;;2.10;;
20241;SDS011;10279;46.388;8.116;2022-12-18T16:18:19;4.23;;;1.80;;
20241;SDS011;10279;46.388;8.116;2022-12-18T16:20:46;7.20;;;2.77;;
20241;SDS011;10279;46.388;8.116;2022-12-18T16:23:13;4.80;;;3.10;;
20241;SDS011;10279;46.388;8.116;2022-12-18T16:25:41;2.80;;;2.17;;
20241;SDS011;10279;46.388;8.116;2022-12-18T16:28:08;4.97;;;2.40;;
20241;SDS011;10279;46.388;8.116;2022-12-18T16:30:35;4.37;;;2.00;;
20241;SDS011;10279;46.388;8.116;2022-12-18T16:33:04;3.60;;;2.43;;
20241;SDS011;10279;46.388;8.116;2022-12-18T16:35:33;5.73;;;2.87;;
20241;SDS011;10279;46.388;8.116;2022-12-18T16:38:03;6.80;;;3.60;;
20241;SDS011;10279;46.388;8.116;2022-12-18T16:40:31;9.57;;;4.80;;
20241;SDS011;10279;46.388;8.116;2022-12-18T16:42:59;6.10;;;3.10;;
20241;SDS011;10279;46.388;8.116;2022-12-18T16:45:26;3.33;;;1.93;;
20241;SDS011;10279;46.388;8.116;2022-12-18T16:47:59;3.17;;;2.00;;
20241;SDS011;10279;46.388;8.116;2022-12-18T16:50:26;4.10;;;1.90;;
20241;SDS011;10279;46.388;8.116;2022-12-18T16:52:54;3.70;;;2.63;;
20241;SDS011;10279;46.388;8.116;2022-12-18T16:55:21;3.57;;;3.23;;
20241;SDS011;10279;46.388;8.116;2022-12-18T16:57:48;4.20;;;3.63;;
20241;SDS011;10279;46.388;8.116;2022-12-18T17:00:16;4.33;;;3.10;;
20241;SDS011;10279;46.388;8.116;2022-12-18T17:02:43;5.60;;;2.87;;
20241;SDS011;10279;46.388;8.116;2022-12-18T17:05:12;4.23;;;2.80;;
20241;SDS011;10279;46.388;8.116;2022-12-18T17:07:40;5.77;;;3.23;;
20241;SDS011;10279;46.388;8.116;2022-12-18T17:10:07;3.97;;;2.70;;
20241;SDS011;10279;46.388;8.116;2022-12-18T17:12:37;4.23;;;2.13;;